Weather reports worldwide

Advertisment
Bari, Italy (16271): temperature & dewpoint: 17.10.2020 02:00:00 - 23.10.2020 02:00:00 (CEST)Bari, Italy (16271): wind speed: 17.10.2020 02:00:00 - 23.10.2020 02:00:00 (CEST)Bari, Italy (16271): wind direction: 17.10.2020 02:00:00 - 23.10.2020 02:00:00 (CEST)Bari, Italy (16271): reduced air pressure: 17.10.2020 02:00:00 - 23.10.2020 02:00:00 (CEST)
Date & Time tt [°C] td [°C] ff [km/h] ff [kn] dd ppp [hPa]
23.10.2020 02:00:00 - - - - - -
23.10.2020 01:00:00 13,4 9,6 8 4 S 1024,5
23.10.2020 00:00:00 14,1 10,3 5 3 S 1024,4
22.10.2020 23:00:00 14,6 12,1 9 5 S 1024,7
22.10.2020 22:00:00 15,8 13,2 5 3 S 1024,7
22.10.2020 21:00:00 16,6 13,8 8 4 S 1024,8
22.10.2020 20:00:00 17,6 13,2 4 2 S 1024,7
22.10.2020 19:00:00 18,2 13,2 2 1 S 1024,5
22.10.2020 18:00:00 19,0 14,0 5 3 S 1024,2
22.10.2020 17:00:00 20,5 14,3 5 3 S 1024,3
22.10.2020 16:00:00 20,5 14,1 8 4 S 1024,3
22.10.2020 15:00:00 20,8 13,9 9 5 S 1024,6
22.10.2020 14:00:00 20,3 13,2 8 4 S 1025,3
22.10.2020 13:00:00 19,5 13,6 9 5 S 1025,9
22.10.2020 12:00:00 18,7 13,5 11 6 S 1026,4
22.10.2020 11:00:00 18,1 13,3 11 6 S 1026,4
22.10.2020 10:00:00 16,9 11,3 8 4 S 1026,2
22.10.2020 09:00:00 13,9 8,0 9 5 S 1025,8
22.10.2020 08:00:00 12,0 6,2 11 6 S 1025,4
22.10.2020 07:00:00 12,4 6,2 13 7 S 1025,0
22.10.2020 06:00:00 12,1 5,4 13 7 S 1025,3
22.10.2020 05:00:00 12,5 6,7 13 7 S 1025,3
22.10.2020 04:00:00 13,0 7,0 11 6 S 1025,3
22.10.2020 03:00:00 13,5 7,2 9 5 S 1025,6
22.10.2020 02:00:00 13,6 7,1 5 3 S 1025,5
22.10.2020 01:00:00 13,7 7,2 9 5 S 1025,2
22.10.2020 00:00:00 13,9 9,5 13 7 S 1024,8
21.10.2020 23:00:00 14,8 11,0 9 5 S 1024,9
21.10.2020 22:00:00 15,9 11,2 8 4 S 1025,1
21.10.2020 21:00:00 16,8 12,1 8 4 S 1025,1
21.10.2020 20:00:00 17,3 11,9 8 4 S 1025,0
21.10.2020 19:00:00 18,1 12,1 11 6 S 1024,8
21.10.2020 18:00:00 19,0 12,2 15 8 S 1024,9
21.10.2020 17:00:00 19,5 12,9 16 9 S 1024,8
21.10.2020 16:00:00 19,7 12,8 18 10 S 1024,7
21.10.2020 15:00:00 19,9 12,6 18 10 S 1025,1
21.10.2020 14:00:00 20,1 11,5 16 9 S 1025,6
21.10.2020 13:00:00 19,8 11,2 13 7 S 1026,1
21.10.2020 12:00:00 19,8 11,0 9 5 S 1026,6
21.10.2020 11:00:00 19,7 11,7 2 1 S 1026,7
21.10.2020 10:00:00 16,7 11,6 4 2 S 1026,7
21.10.2020 09:00:00 14,0 9,8 8 4 S 1026,5
21.10.2020 08:00:00 12,2 10,1 11 6 S 1026,0
21.10.2020 07:00:00 12,2 10,1 13 7 S 1025,7
21.10.2020 06:00:00 12,6 10,5 13 7 S 1025,6
21.10.2020 05:00:00 12,8 10,7 13 7 S 1025,4
21.10.2020 04:00:00 13,1 10,8 11 6 S 1025,3
21.10.2020 03:00:00 13,2 10,9 11 6 S 1025,3
21.10.2020 02:00:00 13,5 11,2 9 5 S 1026,0
21.10.2020 01:00:00 13,8 11,5 11 6 S 1026,5
21.10.2020 00:00:00 14,3 10,5 9 5 S 1026,6
20.10.2020 23:00:00 15,0 11,0 11 6 S 1026,6
20.10.2020 22:00:00 16,3 11,4 8 4 S 1026,5
20.10.2020 21:00:00 17,8 13,0 5 3 S 1025,9
20.10.2020 20:00:00 17,9 13,1 8 4 S 1025,6
20.10.2020 19:00:00 18,0 13,0 9 5 S 1025,3
20.10.2020 18:00:00 18,6 13,2 11 6 S 1025,4
20.10.2020 17:00:00 19,3 13,4 11 6 S 1025,3
20.10.2020 16:00:00 19,7 13,3 13 7 S 1025,5
20.10.2020 15:00:00 19,0 12,7 15 8 S 1025,8
20.10.2020 14:00:00 19,0 12,7 16 9 S 1026,1
20.10.2020 13:00:00 18,9 12,8 18 10 S 1026,3
20.10.2020 12:00:00 18,6 12,9 16 9 S 1026,4
20.10.2020 11:00:00 18,0 12,6 15 8 S 1026,1
20.10.2020 10:00:00 16,7 11,8 8 4 S 1026,0
20.10.2020 09:00:00 14,4 10,6 9 5 S 1025,5
20.10.2020 08:00:00 13,4 11,3 13 7 S 1025,1
20.10.2020 07:00:00 12,7 9,5 13 7 S 1024,9
20.10.2020 06:00:00 12,5 8,9 11 6 S 1024,8
20.10.2020 05:00:00 13,3 9,5 11 6 S 1024,9
20.10.2020 04:00:00 13,5 9,5 9 5 S 1025,0
20.10.2020 03:00:00 13,4 9,2 13 7 S 1025,1
20.10.2020 02:00:00 13,4 9,4 13 7 S 1025,2
20.10.2020 01:00:00 13,9 9,7 9 5 S 1024,8
20.10.2020 00:00:00 14,2 9,8 9 5 S 1024,9
19.10.2020 23:00:00 14,7 9,9 9 5 S 1024,6
19.10.2020 22:00:00 15,9 10,2 8 4 S 1024,5
19.10.2020 21:00:00 18,0 10,6 5 3 S 1024,2
19.10.2020 20:00:00 18,4 10,4 8 4 S 1024,3
19.10.2020 19:00:00 18,5 8,1 9 5 S 1024,2
19.10.2020 18:00:00 19,7 7,7 11 6 S 1023,8
19.10.2020 17:00:00 20,3 11,2 11 6 S 1023,7
19.10.2020 16:00:00 20,6 12,0 16 9 S 1023,6
19.10.2020 15:00:00 20,0 13,1 16 9 S 1023,8
19.10.2020 14:00:00 19,5 13,8 21 11 S 1024,0
19.10.2020 13:00:00 18,9 13,9 22 12 S 1024,3
19.10.2020 12:00:00 18,3 12,9 26 14 S 1024,4
19.10.2020 11:00:00 18,1 12,9 21 11 S 1024,4
19.10.2020 10:00:00 17,1 12,0 13 7 S 1024,0
19.10.2020 09:00:00 14,9 10,7 9 5 S 1023,6
19.10.2020 08:00:00 13,9 9,9 13 7 S 1023,0
19.10.2020 07:00:00 13,6 9,6 15 8 S 1022,8
19.10.2020 06:00:00 13,5 9,9 15 8 S 1022,9
19.10.2020 05:00:00 13,7 10,1 15 8 S 1022,8
19.10.2020 04:00:00 14,3 10,3 15 8 S 1022,8
19.10.2020 03:00:00 14,4 10,6 16 9 S 1022,9
19.10.2020 02:00:00 15,6 11,7 9 5 S 1022,8
19.10.2020 01:00:00 14,3 10,1 9 5 S 1022,7
19.10.2020 00:00:00 14,7 10,1 8 4 S 1022,4
18.10.2020 23:00:00 15,4 10,5 8 4 S 1022,1
18.10.2020 22:00:00 17,8 12,0 13 7 S 1021,6
18.10.2020 21:00:00 17,7 10,5 13 7 S 1021,1
18.10.2020 20:00:00 17,9 11,4 13 7 S 1020,9
18.10.2020 19:00:00 18,1 11,1 13 7 S 1020,5
18.10.2020 18:00:00 18,8 10,8 11 6 S 1020,1
18.10.2020 17:00:00 19,8 11,2 13 7 S 1019,9
18.10.2020 16:00:00 19,5 12,0 15 8 S 1019,8
18.10.2020 15:00:00 19,2 13,1 18 10 S 1020,0
18.10.2020 14:00:00 19,0 14,0 13 7 S 1020,1
18.10.2020 13:00:00 18,4 12,6 11 6 S 1020,5
18.10.2020 12:00:00 18,1 12,3 21 11 S 1020,4
18.10.2020 11:00:00 17,2 12,8 15 8 S 1020,2
18.10.2020 10:00:00 16,4 12,7 8 4 S 1019,8
18.10.2020 09:00:00 13,9 10,8 9 5 S 1019,2
18.10.2020 08:00:00 13,0 10,1 11 6 S 1018,7
18.10.2020 07:00:00 13,5 11,2 11 6 S 1018,2
18.10.2020 06:00:00 14,4 11,9 13 7 S 1018,1
18.10.2020 05:00:00 15,1 12,6 8 4 S 1018,1
18.10.2020 04:00:00 15,1 12,6 9 5 S 1017,9
18.10.2020 03:00:00 15,5 13,1 4 2 S 1018,1
18.10.2020 02:00:00 15,3 12,8 4 2 S 1018,0
18.10.2020 01:00:00 15,7 12,0 2 1 S 1017,9
18.10.2020 00:00:00 16,0 11,9 4 2 S 1018,0
17.10.2020 23:00:00 16,5 11,8 2 1 S 1018,1
17.10.2020 22:00:00 17,0 12,1 4 2 S 1017,8
17.10.2020 21:00:00 17,7 11,4 2 1 S 1017,6
17.10.2020 20:00:00 17,6 10,9 2 1 S 1017,4
17.10.2020 19:00:00 18,1 10,9 2 1 S 1016,9
17.10.2020 18:00:00 18,4 10,7 9 5 S 1016,2
17.10.2020 17:00:00 18,6 10,1 5 3 S 1016,0
17.10.2020 16:00:00 19,0 10,2 8 4 S 1015,9
17.10.2020 15:00:00 19,1 9,8 13 7 S 1015,6
17.10.2020 14:00:00 19,2 10,9 13 7 S 1015,5
17.10.2020 13:00:00 19,6 10,5 13 7 S 1015,7
17.10.2020 12:00:00 19,6 9,7 9 5 S 1015,8
17.10.2020 11:00:00 18,8 9,5 2 1 S 1015,8
17.10.2020 10:00:00 16,1 8,3 5 3 S 1015,7
17.10.2020 09:00:00 14,3 7,3 11 6 S 1015,5
17.10.2020 08:00:00 12,7 6,4 13 7 S 1015,0
17.10.2020 07:00:00 12,7 6,9 11 6 S 1014,8
17.10.2020 06:00:00 13,2 7,4 11 6 S 1014,8
17.10.2020 05:00:00 13,2 7,6 11 6 S 1014,7
17.10.2020 04:00:00 13,5 7,4 11 6 S 1014,7
17.10.2020 03:00:00 13,8 7,7 13 7 S 1014,4
17.10.2020 02:00:00 14,4 8,1 15 8 S 1014,0

tt = temperature
td = dewpoint
ff = wind speed
dd = wind direction
ppp = reduced air pressure

Next stations